Аэропорт: Основа. Харьков

ICAO: UKHH

METAR:
2018/05/20 23:00
UKHH 202300Z 33002MPS 300V020 9999 BKN007 BKN020 15/14 Q1015 R07/0///72 NOSIG
METAR:
2018/05/07 09:21
TAF 
      AMD TAF 
      AMD UKHH 070917Z 0709/0721 06006G12MPS 9999 SCT020 SCT030CB TX30/0712Z TN23/0718Z 
      TEMPO 0710/0718 12009G16MPS PROB40 
      TEMPO 0710/0718 2100 -TSRA BKN007 BKN020CB